Criccieth, United Kingdom
Current Conditions -  °F | °C
As of 5:50 PM on Saturday 25 Oct 2014 (Local Time) from EGOV Reporting Station
Broken Clouds Broken Clouds  
Wind Chill: 57°   Ceiling: 4000
Heat Index: 57°   Visibility: 6mi
Dew Point: 50°   Wind: 26mph
Humidity: 77%   Direction: 210°SSW
Pressure: 29.91"   Gusts: NA
Location:  52.92°N, 4.23°W
Report Text: EGOV 251650Z AUTO 21023KT 9999 BKN040/// 14/10 Q1013
Loading
Personal Weather Stations






























Interactive Weather Map New forecast layout! Learn more

10-Day Weather Forecast

Advertisements
Track Severe Weather on mobile